Wind From: 11-12-2017 07:30 Until: 12-12-2017 06:00 warning for: Wind Level: Orange info button

Power and phone distribution networks may be disrupted for relatively long periods., Roofs and chimneys can be damaged. , Tree branches may break. , Vehicles can be deported. , Traffic may be disrupted, particularly on secondary roads in forest areas. Limit your trips. , Limit your speed in highway driving, especially if you drive a vehicle or hitch sensitive to wind. , Do not go for walks in forests or along the coast., In town, be vigilant against possible falling objects., Do not work on roofs and do not touch any electrical line fallen on the ground., Store or secure sensitive objects to wind or likely to be damaged., Always install power generators outside buildings. 


Meteo18 Weather Cam more information Meteo18 Weather Cam


Thunder radar more information blitzortung!


Rain radar more information rain snow radar


Visit our other weather sites:

Template documentation
and downloads

And another site



Weather Underground History page Text

Daily Summary for September 4, 2017 Units:  Both    English   Metric
« Previous Day
Next Day »
Daily Weekly Monthly Yearly Custom
  High: Low: Average:
Temperature: 76.8 °F /  24.9 °C 57.7 °F /  14.3 °C 66.6 °F /  19.2 °C
Dew Point: 61.5 °F /  16.4 °C 51.1 °F /  10.6 °C 55.8 °F /  13.2 °C
Humidity: 85 % 52 % 69 %
Wind Speed: 13 mph /  20.9 km/h - 2.2 mph /  3.6 km/h
Wind Gust: 16 mph /  25.7 km/h - -
Wind:- - WSW
Pressure: 30.1 in /  1020.5 hPa 29.9 in /  1013.8 hPa -
Precipitation: 0 in /  0.0 mm    
Historical Graphs
 
 
Tabular Data for September 4, 2017
Time Temperature Dew Point Pressure Wind Wind Speed Wind Gust Humidity Rainfall Rate (Hourly)
00:02 61.2 °F /  16.2 °C 52.5 °F /  11.4 °C 30 in /  1014.4 hPa Calm   1 mph /  1.6 km/h 73 % 0 in /  0.0 mm
00:07 61.2 °F /  16.2 °C 52 °F /  11.1 °C 30 in /  1014.4 hPa SSW 1 mph /  1.6 km/h 1 mph /  1.6 km/h 72 % 0 in /  0.0 mm
00:12 61.3 °F /  16.3 °C 51.4 °F /  10.8 °C 30 in /  1014.4 hPa Calm   2 mph /  3.2 km/h 70 % 0 in /  0.0 mm
00:17 61.3 °F /  16.3 °C 51.4 °F /  10.8 °C 30 in /  1014.4 hPa Calm   2 mph /  3.2 km/h 70 % 0 in /  0.0 mm
00:22 61.3 °F /  16.3 °C 51.4 °F /  10.8 °C 30 in /  1014.4 hPa Calm   2 mph /  3.2 km/h 70 % 0 in /  0.0 mm
00:27 61.3 °F /  16.3 °C 52.2 °F /  11.2 °C 30 in /  1014.4 hPa WSW 1 mph /  1.6 km/h 1 mph /  1.6 km/h 72 % 0 in /  0.0 mm
00:32 61.2 °F /  16.2 °C 52 °F /  11.1 °C 30 in /  1014.4 hPa Calm   1 mph /  1.6 km/h 72 % 0 in /  0.0 mm
00:42 61.3 °F /  16.3 °C 51.4 °F /  10.8 °C 30 in /  1014.4 hPa SSE 1 mph /  1.6 km/h 2 mph /  3.2 km/h 70 % 0 in /  0.0 mm
00:47 61.3 °F /  16.3 °C 52.2 °F /  11.2 °C 30 in /  1014.4 hPa WSW 1 mph /  1.6 km/h 2 mph /  3.2 km/h 72 % 0 in /  0.0 mm
00:52 61.2 °F /  16.2 °C 52.5 °F /  11.4 °C 30 in /  1014.4 hPa Calm   2 mph /  3.2 km/h 73 % 0 in /  0.0 mm
00:57 61 °F /  16.1 °C 52 °F /  11.1 °C 30 in /  1014.4 hPa Calm   2 mph /  3.2 km/h 72 % 0 in /  0.0 mm
01:02 61 °F /  16.1 °C 52.3 °F /  11.3 °C 30 in /  1014.4 hPa WSW 1 mph /  1.6 km/h 1 mph /  1.6 km/h 73 % 0 in /  0.0 mm
01:07 60.8 °F /  16.0 °C 52.9 °F /  11.6 °C 30 in /  1014.4 hPa Calm   2 mph /  3.2 km/h 75 % 0 in /  0.0 mm
01:12 60.6 °F /  15.9 °C 53.1 °F /  11.7 °C 30 in /  1014.4 hPa Calm   2 mph /  3.2 km/h 76 % 0 in /  0.0 mm
01:17 60.4 °F /  15.8 °C 53.2 °F /  11.8 °C 30 in /  1014.4 hPa WSW 1 mph /  1.6 km/h 2 mph /  3.2 km/h 77 % 0 in /  0.0 mm
01:22 60.6 °F /  15.9 °C 52.3 °F /  11.3 °C 30 in /  1014.4 hPa WSW 2 mph /  3.2 km/h 2 mph /  3.2 km/h 74 % 0 in /  0.0 mm
01:32 61.3 °F /  16.3 °C 51.4 °F /  10.8 °C 30 in /  1014.4 hPa WSW 1 mph /  1.6 km/h 5 mph /  8.0 km/h 70 % 0 in /  0.0 mm
01:37 61.7 °F /  16.5 °C 51.4 °F /  10.8 °C 30 in /  1014.4 hPa Calm   4 mph /  6.4 km/h 69 % 0 in /  0.0 mm
01:42 61.5 °F /  16.4 °C 52 °F /  11.1 °C 30 in /  1014.4 hPa Calm   1 mph /  1.6 km/h 71 % 0 in /  0.0 mm
01:47 61.3 °F /  16.3 °C 51.8 °F /  11.0 °C 30 in /  1014.4 hPa Calm   1 mph /  1.6 km/h 71 % 0 in /  0.0 mm
01:52 61.3 °F /  16.3 °C 51.8 °F /  11.0 °C 30 in /  1014.4 hPa Calm   1 mph /  1.6 km/h 71 % 0 in /  0.0 mm
01:57 61.3 °F /  16.3 °C 51.8 °F /  11.0 °C 30 in /  1014.4 hPa Calm     71 % 0 in /  0.0 mm
02:02 61.2 °F /  16.2 °C 52 °F /  11.1 °C 30 in /  1014.4 hPa Calm     72 % 0 in /  0.0 mm
02:07 61.2 °F /  16.2 °C 52 °F /  11.1 °C 29.9 in /  1014.1 hPa Calm     72 % 0 in /  0.0 mm
02:12 61.2 °F /  16.2 °C 52 °F /  11.1 °C 29.9 in /  1014.1 hPa Calm     72 % 0 in /  0.0 mm
02:17 61.2 °F /  16.2 °C 52.5 °F /  11.4 °C 29.9 in /  1014.1 hPa Calm     73 % 0 in /  0.0 mm
02:22 61 °F /  16.1 °C 51.4 °F /  10.8 °C 29.9 in /  1014.1 hPa Calm     71 % 0 in /  0.0 mm
02:27 61 °F /  16.1 °C 52 °F /  11.1 °C 29.9 in /  1014.1 hPa Calm     72 % 0 in /  0.0 mm
02:32 60.8 °F /  16.0 °C 51.8 °F /  11.0 °C 29.9 in /  1013.8 hPa Calm     72 % 0 in /  0.0 mm
02:37 60.6 °F /  15.9 °C 51.1 °F /  10.6 °C 29.9 in /  1014.1 hPa Calm     71 % 0 in /  0.0 mm
02:42 60.8 °F /  16.0 °C 51.3 °F /  10.7 °C 29.9 in /  1013.8 hPa Calm   2 mph /  3.2 km/h 71 % 0 in /  0.0 mm
02:47 60.6 °F /  15.9 °C 51.1 °F /  10.6 °C 29.9 in /  1013.8 hPa Calm   2 mph /  3.2 km/h 71 % 0 in /  0.0 mm
02:52 60.6 °F /  15.9 °C 51.6 °F /  10.9 °C 29.9 in /  1013.8 hPa Calm   2 mph /  3.2 km/h 72 % 0 in /  0.0 mm
02:57 60.4 °F /  15.8 °C 51.4 °F /  10.8 °C 29.9 in /  1013.8 hPa Calm   2 mph /  3.2 km/h 72 % 0 in /  0.0 mm
03:02 60.3 °F /  15.7 °C 51.6 °F /  10.9 °C 29.9 in /  1013.8 hPa Calm   2 mph /  3.2 km/h 73 % 0 in /  0.0 mm
03:07 59.7 °F /  15.4 °C 51.1 °F /  10.6 °C 29.9 in /  1014.1 hPa Calm     73 % 0 in /  0.0 mm
03:12 59.5 °F /  15.3 °C 51.3 °F /  10.7 °C 29.9 in /  1014.1 hPa Calm     74 % 0 in /  0.0 mm
03:17 59.5 °F /  15.3 °C 51.6 °F /  10.9 °C 29.9 in /  1014.1 hPa Calm     75 % 0 in /  0.0 mm
03:22 59.4 °F /  15.2 °C 51.4 °F /  10.8 °C 29.9 in /  1014.1 hPa Calm     75 % 0 in /  0.0 mm
03:27 59.4 °F /  15.2 °C 51.8 °F /  11.0 °C 29.9 in /  1014.1 hPa NE 1 mph /  1.6 km/h 1 mph /  1.6 km/h 76 % 0 in /  0.0 mm
03:32 59.4 °F /  15.2 °C 51.8 °F /  11.0 °C 29.9 in /  1014.1 hPa Calm   1 mph /  1.6 km/h 76 % 0 in /  0.0 mm
03:37 59.5 °F /  15.3 °C 51.6 °F /  10.9 °C 29.9 in /  1014.1 hPa Calm   1 mph /  1.6 km/h 75 % 0 in /  0.0 mm
03:42 59.7 °F /  15.4 °C 51.8 °F /  11.0 °C 29.9 in /  1014.1 hPa Calm   1 mph /  1.6 km/h 75 % 0 in /  0.0 mm
03:47 59.7 °F /  15.4 °C 52.5 °F /  11.4 °C 29.9 in /  1013.8 hPa Calm   1 mph /  1.6 km/h 77 % 0 in /  0.0 mm
03:52 59.5 °F /  15.3 °C 52.7 °F /  11.5 °C 29.9 in /  1014.1 hPa Calm     78 % 0 in /  0.0 mm
03:57 59.4 °F /  15.2 °C 52.5 °F /  11.4 °C 29.9 in /  1014.1 hPa Calm     78 % 0 in /  0.0 mm
04:02 59.2 °F /  15.1 °C 52.3 °F /  11.3 °C 29.9 in /  1014.1 hPa Calm     78 % 0 in /  0.0 mm
04:07 59.2 °F /  15.1 °C 52.7 °F /  11.5 °C 29.9 in /  1014.1 hPa Calm     79 % 0 in /  0.0 mm
04:12 59 °F /  15.0 °C 52.5 °F /  11.4 °C 29.9 in /  1014.1 hPa Calm     79 % 0 in /  0.0 mm
04:17 59 °F /  15.0 °C 52.5 °F /  11.4 °C 29.9 in /  1014.1 hPa Calm     79 % 0 in /  0.0 mm
04:22 59 °F /  15.0 °C 52.5 °F /  11.4 °C 29.9 in /  1013.8 hPa Calm     79 % 0 in /  0.0 mm
04:27 59 °F /  15.0 °C 51.8 °F /  11.0 °C 29.9 in /  1013.8 hPa Calm     77 % 0 in /  0.0 mm
04:32 59.2 °F /  15.1 °C 52 °F /  11.1 °C 29.9 in /  1013.8 hPa Calm   1 mph /  1.6 km/h 77 % 0 in /  0.0 mm
04:37 59.2 °F /  15.1 °C 52.3 °F /  11.3 °C 29.9 in /  1013.8 hPa Calm   1 mph /  1.6 km/h 78 % 0 in /  0.0 mm
04:42 59.2 °F /  15.1 °C 52.7 °F /  11.5 °C 29.9 in /  1013.8 hPa Calm     79 % 0 in /  0.0 mm
04:47 58.8 °F /  14.9 °C 52.7 °F /  11.5 °C 29.9 in /  1013.8 hPa Calm   1 mph /  1.6 km/h 80 % 0 in /  0.0 mm
04:52 58.8 °F /  14.9 °C 52.7 °F /  11.5 °C 29.9 in /  1013.8 hPa Calm   2 mph /  3.2 km/h 80 % 0 in /  0.0 mm
04:57 58.6 °F /  14.8 °C 52.5 °F /  11.4 °C 29.9 in /  1014.1 hPa NNW 1 mph /  1.6 km/h 2 mph /  3.2 km/h 80 % 0 in /  0.0 mm
05:02 58.6 °F /  14.8 °C 52.5 °F /  11.4 °C 29.9 in /  1014.1 hPa Calm   2 mph /  3.2 km/h 80 % 0 in /  0.0 mm
05:22 58.6 °F /  14.8 °C 52.9 °F /  11.6 °C 29.9 in /  1014.1 hPa Calm   1 mph /  1.6 km/h 81 % 0 in /  0.0 mm
05:27 58.6 °F /  14.8 °C 52.9 °F /  11.6 °C 29.9 in /  1014.1 hPa Calm   1 mph /  1.6 km/h 81 % 0 in /  0.0 mm
05:32 58.5 °F /  14.7 °C 53.1 °F /  11.7 °C 29.9 in /  1014.1 hPa Calm   1 mph /  1.6 km/h 82 % 0 in /  0.0 mm
05:37 58.5 °F /  14.7 °C 53.1 °F /  11.7 °C 29.9 in /  1014.1 hPa Calm     82 % 0 in /  0.0 mm
05:42 58.3 °F /  14.6 °C 52.9 °F /  11.6 °C 29.9 in /  1014.1 hPa Calm     82 % 0 in /  0.0 mm
05:47 58.3 °F /  14.6 °C 52.9 °F /  11.6 °C 29.9 in /  1014.1 hPa Calm     82 % 0 in /  0.0 mm
05:52 58.5 °F /  14.7 °C 53.1 °F /  11.7 °C 29.9 in /  1014.1 hPa Calm     82 % 0 in /  0.0 mm
05:57 58.3 °F /  14.6 °C 52.9 °F /  11.6 °C 29.9 in /  1014.1 hPa Calm     82 % 0 in /  0.0 mm
06:02 58.3 °F /  14.6 °C 52.9 °F /  11.6 °C 29.9 in /  1014.1 hPa Calm     82 % 0 in /  0.0 mm
06:12 57.9 °F /  14.4 °C 52.7 °F /  11.5 °C 29.9 in /  1014.1 hPa Calm     83 % 0 in /  0.0 mm
06:17 57.7 °F /  14.3 °C 52.3 °F /  11.3 °C 29.9 in /  1014.1 hPa Calm   1 mph /  1.6 km/h 82 % 0 in /  0.0 mm
06:22 57.7 °F /  14.3 °C 52.7 °F /  11.5 °C 29.9 in /  1014.1 hPa Calm   1 mph /  1.6 km/h 83 % 0 in /  0.0 mm
06:27 57.7 °F /  14.3 °C 52.3 °F /  11.3 °C 30 in /  1014.4 hPa Calm   1 mph /  1.6 km/h 82 % 0 in /  0.0 mm
06:32 57.7 °F /  14.3 °C 52.3 °F /  11.3 °C 30 in /  1014.4 hPa Calm     82 % 0 in /  0.0 mm
06:42 57.7 °F /  14.3 °C 52.3 °F /  11.3 °C 30 in /  1014.4 hPa Calm   1 mph /  1.6 km/h 82 % 0 in /  0.0 mm
06:52 57.7 °F /  14.3 °C 52.3 °F /  11.3 °C 30 in /  1014.4 hPa Calm   1 mph /  1.6 km/h 82 % 0 in /  0.0 mm
07:02 57.7 °F /  14.3 °C 52.3 °F /  11.3 °C 30 in /  1014.8 hPa Calm     82 % 0 in /  0.0 mm
07:12 57.9 °F /  14.4 °C 52.2 °F /  11.2 °C 30 in /  1014.4 hPa Calm     81 % 0 in /  0.0 mm
07:17 58.1 °F /  14.5 °C 52.7 °F /  11.5 °C 30 in /  1014.4 hPa Calm     82 % 0 in /  0.0 mm
07:22 58.3 °F /  14.6 °C 53.1 °F /  11.7 °C 30 in /  1014.8 hPa Calm   2 mph /  3.2 km/h 83 % 0 in /  0.0 mm
07:27 58.1 °F /  14.5 °C 52.9 °F /  11.6 °C 30 in /  1014.8 hPa Calm   2 mph /  3.2 km/h 83 % 0 in /  0.0 mm
07:32 58.3 °F /  14.6 °C 53.4 °F /  11.9 °C 30 in /  1015.1 hPa Calm   2 mph /  3.2 km/h 84 % 0 in /  0.0 mm
07:37 58.3 °F /  14.6 °C 53.4 °F /  11.9 °C 30 in /  1015.1 hPa Calm   1 mph /  1.6 km/h 84 % 0 in /  0.0 mm
07:42 58.3 °F /  14.6 °C 53.4 °F /  11.9 °C 30 in /  1015.1 hPa Calm   1 mph /  1.6 km/h 84 % 0 in /  0.0 mm
07:47 58.3 °F /  14.6 °C 53.4 °F /  11.9 °C 30 in /  1015.1 hPa Calm   1 mph /  1.6 km/h 84 % 0 in /  0.0 mm
07:52 58.3 °F /  14.6 °C 53.4 °F /  11.9 °C 30 in /  1015.1 hPa Calm     84 % 0 in /  0.0 mm
07:57 58.5 °F /  14.7 °C 54 °F /  12.2 °C 30 in /  1015.1 hPa Calm     85 % 0 in /  0.0 mm
08:02 58.5 °F /  14.7 °C 53.6 °F /  12.0 °C 30 in /  1015.1 hPa Calm     84 % 0 in /  0.0 mm
08:12 58.6 °F /  14.8 °C 53.4 °F /  11.9 °C 30 in /  1014.8 hPa Calm   1 mph /  1.6 km/h 83 % 0 in /  0.0 mm
08:17 58.8 °F /  14.9 °C 53.1 °F /  11.7 °C 30 in /  1014.8 hPa Calm   1 mph /  1.6 km/h 81 % 0 in /  0.0 mm
08:22 59.2 °F /  15.1 °C 53.1 °F /  11.7 °C 30 in /  1015.1 hPa Calm   2 mph /  3.2 km/h 80 % 0 in /  0.0 mm
08:27 59.4 °F /  15.2 °C 53.2 °F /  11.8 °C 30 in /  1015.1 hPa Calm   2 mph /  3.2 km/h 80 % 0 in /  0.0 mm
08:32 59.4 °F /  15.2 °C 53.2 °F /  11.8 °C 30 in /  1015.1 hPa Calm   2 mph /  3.2 km/h 80 % 0 in /  0.0 mm
08:37 59.5 °F /  15.3 °C 53.4 °F /  11.9 °C 30 in /  1015.1 hPa Calm   2 mph /  3.2 km/h 80 % 0 in /  0.0 mm
08:42 59.7 °F /  15.4 °C 53.6 °F /  12.0 °C 30 in /  1015.1 hPa Calm   1 mph /  1.6 km/h 80 % 0 in /  0.0 mm
08:47 60.1 °F /  15.6 °C 53.6 °F /  12.0 °C 30 in /  1015.1 hPa Calm   1 mph /  1.6 km/h 79 % 0 in /  0.0 mm
08:52 60.1 °F /  15.6 °C 53.2 °F /  11.8 °C 30 in /  1015.5 hPa SSE 1 mph /  1.6 km/h 2 mph /  3.2 km/h 78 % 0 in /  0.0 mm
08:57 60.4 °F /  15.8 °C 53.6 °F /  12.0 °C 30 in /  1015.5 hPa Calm   2 mph /  3.2 km/h 78 % 0 in /  0.0 mm
09:02 60.6 °F /  15.9 °C 53.8 °F /  12.1 °C 30 in /  1015.5 hPa Calm   2 mph /  3.2 km/h 78 % 0 in /  0.0 mm
09:12 61 °F /  16.1 °C 53.4 °F /  11.9 °C 30 in /  1015.5 hPa SE 1 mph /  1.6 km/h 2 mph /  3.2 km/h 76 % 0 in /  0.0 mm
09:17 61.2 °F /  16.2 °C 53.6 °F /  12.0 °C 30 in /  1015.5 hPa Calm   3 mph /  4.8 km/h 76 % 0 in /  0.0 mm
09:22 61.5 °F /  16.4 °C 54 °F /  12.2 °C 30 in /  1015.5 hPa South 3 mph /  4.8 km/h 3 mph /  4.8 km/h 76 % 0 in /  0.0 mm
09:27 62.2 °F /  16.8 °C 53.8 °F /  12.1 °C 30 in /  1015.8 hPa South 3 mph /  4.8 km/h 3 mph /  4.8 km/h 74 % 0 in /  0.0 mm
09:32 63 °F /  17.2 °C 53.8 °F /  12.1 °C 30 in /  1015.8 hPa SSW 4 mph /  6.4 km/h 4 mph /  6.4 km/h 72 % 0 in /  0.0 mm
09:37 63.3 °F /  17.4 °C 53.8 °F /  12.1 °C 30 in /  1015.8 hPa SSW 4 mph /  6.4 km/h 7 mph /  11.3 km/h 71 % 0 in /  0.0 mm
09:42 63.5 °F /  17.5 °C 53.6 °F /  12.0 °C 30 in /  1015.8 hPa Calm   7 mph /  11.3 km/h 70 % 0 in /  0.0 mm
09:47 64.2 °F /  17.9 °C 53.8 °F /  12.1 °C 30 in /  1015.8 hPa SE 3 mph /  4.8 km/h 7 mph /  11.3 km/h 69 % 0 in /  0.0 mm
09:52 64.6 °F /  18.1 °C 53.8 °F /  12.1 °C 30 in /  1016.1 hPa SSE 2 mph /  3.2 km/h 7 mph /  11.3 km/h 68 % 0 in /  0.0 mm
09:57 64.6 °F /  18.1 °C 52.9 °F /  11.6 °C 30 in /  1016.1 hPa SSE 4 mph /  6.4 km/h 6 mph /  9.7 km/h 66 % 0 in /  0.0 mm
10:02 65.1 °F /  18.4 °C 52.7 °F /  11.5 °C 30 in /  1016.1 hPa ESE 4 mph /  6.4 km/h 6 mph /  9.7 km/h 64 % 0 in /  0.0 mm
10:12 65.7 °F /  18.7 °C 52.7 °F /  11.5 °C 30 in /  1016.1 hPa SE 2 mph /  3.2 km/h 10 mph /  16.1 km/h 63 % 0 in /  0.0 mm
10:17 66.2 °F /  19.0 °C 52.3 °F /  11.3 °C 30 in /  1016.1 hPa SSW 3 mph /  4.8 km/h 10 mph /  16.1 km/h 61 % 0 in /  0.0 mm
10:22 66.6 °F /  19.2 °C 53.1 °F /  11.7 °C 30 in /  1016.1 hPa SW 5 mph /  8.0 km/h 9 mph /  14.5 km/h 62 % 0 in /  0.0 mm
10:27 66.9 °F /  19.4 °C 53.4 °F /  11.9 °C 30 in /  1016.5 hPa WNW 2 mph /  3.2 km/h 9 mph /  14.5 km/h 62 % 0 in /  0.0 mm
10:32 67.6 °F /  19.8 °C 52.9 °F /  11.6 °C 30 in /  1016.5 hPa SW 6 mph /  9.7 km/h 7 mph /  11.3 km/h 59 % 0 in /  0.0 mm
10:42 67.8 °F /  19.9 °C 53.4 °F /  11.9 °C 30 in /  1016.5 hPa SW 3 mph /  4.8 km/h 11 mph /  17.7 km/h 60 % 0 in /  0.0 mm
10:52 68.5 °F /  20.3 °C 53.2 °F /  11.8 °C 30 in /  1016.5 hPa WSW 3 mph /  4.8 km/h 11 mph /  17.7 km/h 58 % 0 in /  0.0 mm
10:57 68.5 °F /  20.3 °C 53.6 °F /  12.0 °C 30 in /  1016.5 hPa West 2 mph /  3.2 km/h 8 mph /  12.9 km/h 59 % 0 in /  0.0 mm
11:02 68.7 °F /  20.4 °C 53.8 °F /  12.1 °C 30 in /  1016.5 hPa SW 5 mph /  8.0 km/h 7 mph /  11.3 km/h 59 % 0 in /  0.0 mm
11:07 68.7 °F /  20.4 °C 53.8 °F /  12.1 °C 30 in /  1016.5 hPa WSW 3 mph /  4.8 km/h 9 mph /  14.5 km/h 59 % 0 in /  0.0 mm
11:12 68.5 °F /  20.3 °C 53.6 °F /  12.0 °C 30 in /  1016.5 hPa WNW 1 mph /  1.6 km/h 9 mph /  14.5 km/h 59 % 0 in /  0.0 mm
11:17 69.1 °F /  20.6 °C 53.6 °F /  12.0 °C 30 in /  1016.8 hPa SSW 1 mph /  1.6 km/h 9 mph /  14.5 km/h 58 % 0 in /  0.0 mm
11:22 69.3 °F /  20.7 °C 53.8 °F /  12.1 °C 30 in /  1016.8 hPa West 3 mph /  4.8 km/h 9 mph /  14.5 km/h 58 % 0 in /  0.0 mm
11:32 69.1 °F /  20.6 °C 53.2 °F /  11.8 °C 30 in /  1016.8 hPa SSW 5 mph /  8.0 km/h 10 mph /  16.1 km/h 57 % 0 in /  0.0 mm
11:37 69.4 °F /  20.8 °C 54 °F /  12.2 °C 30 in /  1016.8 hPa WNW 1 mph /  1.6 km/h 10 mph /  16.1 km/h 58 % 0 in /  0.0 mm
11:42 70 °F /  21.1 °C 53.6 °F /  12.0 °C 30 in /  1016.8 hPa SSW 5 mph /  8.0 km/h 10 mph /  16.1 km/h 56 % 0 in /  0.0 mm
11:47 70.2 °F /  21.2 °C 53.8 °F /  12.1 °C 30 in /  1017.2 hPa West 1 mph /  1.6 km/h 8 mph /  12.9 km/h 56 % 0 in /  0.0 mm
11:52 70.7 °F /  21.5 °C 53.8 °F /  12.1 °C 30 in /  1017.2 hPa SSE 3 mph /  4.8 km/h 8 mph /  12.9 km/h 55 % 0 in /  0.0 mm
11:57 71.2 °F /  21.8 °C 53.8 °F /  12.1 °C 30 in /  1017.2 hPa Calm   8 mph /  12.9 km/h 54 % 0 in /  0.0 mm
12:02 71.2 °F /  21.8 °C 54.3 °F /  12.4 °C 30 in /  1017.2 hPa WSW 6 mph /  9.7 km/h 7 mph /  11.3 km/h 55 % 0 in /  0.0 mm
12:07 71.6 °F /  22.0 °C 54.1 °F /  12.3 °C 30 in /  1016.8 hPa SW 7 mph /  11.3 km/h 7 mph /  11.3 km/h 54 % 0 in /  0.0 mm
12:12 71.1 °F /  21.7 °C 54.5 °F /  12.5 °C 30 in /  1016.8 hPa SSW 6 mph /  9.7 km/h 11 mph /  17.7 km/h 56 % 0 in /  0.0 mm
12:17 71.4 °F /  21.9 °C 54 °F /  12.2 °C 30 in /  1017.2 hPa SW 7 mph /  11.3 km/h 11 mph /  17.7 km/h 54 % 0 in /  0.0 mm
12:22 71.4 °F /  21.9 °C 54.5 °F /  12.5 °C 30 in /  1016.8 hPa SSW 5 mph /  8.0 km/h 11 mph /  17.7 km/h 55 % 0 in /  0.0 mm
12:27 71.4 °F /  21.9 °C 53.4 °F /  11.9 °C 30 in /  1016.8 hPa SW 5 mph /  8.0 km/h 11 mph /  17.7 km/h 53 % 0 in /  0.0 mm
12:32 71.8 °F /  22.1 °C 54.3 °F /  12.4 °C 30 in /  1016.8 hPa South 8 mph /  12.9 km/h 11 mph /  17.7 km/h 54 % 0 in /  0.0 mm
12:42 72.3 °F /  22.4 °C 54.7 °F /  12.6 °C 30 in /  1016.8 hPa SW 10 mph /  16.1 km/h 13 mph /  20.9 km/h 54 % 0 in /  0.0 mm
12:47 72.5 °F /  22.5 °C 54.9 °F /  12.7 °C 30 in /  1016.8 hPa SW 5 mph /  8.0 km/h 11 mph /  17.7 km/h 54 % 0 in /  0.0 mm
12:52 72.7 °F /  22.6 °C 55.6 °F /  13.1 °C 30 in /  1016.8 hPa West 5 mph /  8.0 km/h 11 mph /  17.7 km/h 55 % 0 in /  0.0 mm
12:57 72.7 °F /  22.6 °C 55.6 °F /  13.1 °C 30 in /  1016.8 hPa SSW 6 mph /  9.7 km/h 12 mph /  19.3 km/h 55 % 0 in /  0.0 mm
13:02 72.7 °F /  22.6 °C 55 °F /  12.8 °C 30 in /  1016.8 hPa WSW 4 mph /  6.4 km/h 13 mph /  20.9 km/h 54 % 0 in /  0.0 mm
13:12 73.2 °F /  22.9 °C 55 °F /  12.8 °C 30 in /  1016.8 hPa SSW 3 mph /  4.8 km/h 14 mph /  22.5 km/h 53 % 0 in /  0.0 mm
13:17 73.8 °F /  23.2 °C 55 °F /  12.8 °C 30 in /  1016.8 hPa SW 5 mph /  8.0 km/h 14 mph /  22.5 km/h 52 % 0 in /  0.0 mm
13:22 73.6 °F /  23.1 °C 55.9 °F /  13.3 °C 30 in /  1016.8 hPa South 7 mph /  11.3 km/h 14 mph /  22.5 km/h 54 % 0 in /  0.0 mm
13:32 74.1 °F /  23.4 °C 56.5 °F /  13.6 °C 30 in /  1016.8 hPa SSW 8 mph /  12.9 km/h 14 mph /  22.5 km/h 54 % 0 in /  0.0 mm
13:37 74.1 °F /  23.4 °C 56.5 °F /  13.6 °C 30 in /  1016.8 hPa South 1 mph /  1.6 km/h 14 mph /  22.5 km/h 54 % 0 in /  0.0 mm
13:42 74.5 °F /  23.6 °C 56.3 °F /  13.5 °C 30 in /  1016.8 hPa WSW 5 mph /  8.0 km/h 14 mph /  22.5 km/h 53 % 0 in /  0.0 mm
13:47 74.8 °F /  23.8 °C 56.5 °F /  13.6 °C 30 in /  1016.8 hPa SSW 10 mph /  16.1 km/h 12 mph /  19.3 km/h 53 % 0 in /  0.0 mm
13:52 75.4 °F /  24.1 °C 56.5 °F /  13.6 °C 30 in /  1016.8 hPa SW 3 mph /  4.8 km/h 13 mph /  20.9 km/h 52 % 0 in /  0.0 mm
13:57 75.4 °F /  24.1 °C 56.5 °F /  13.6 °C 30 in /  1016.8 hPa West 4 mph /  6.4 km/h 13 mph /  20.9 km/h 52 % 0 in /  0.0 mm
14:02 74.7 °F /  23.7 °C 56.8 °F /  13.8 °C 30 in /  1016.8 hPa WSW 13 mph /  20.9 km/h 13 mph /  20.9 km/h 54 % 0 in /  0.0 mm
14:12 74.7 °F /  23.7 °C 56.8 °F /  13.8 °C 30 in /  1017.2 hPa SW 12 mph /  19.3 km/h 14 mph /  22.5 km/h 54 % 0 in /  0.0 mm
14:17 74.7 °F /  23.7 °C 57.4 °F /  14.1 °C 30 in /  1016.8 hPa SW 9 mph /  14.5 km/h 16 mph /  25.7 km/h 55 % 0 in /  0.0 mm
14:22 74.7 °F /  23.7 °C 56.8 °F /  13.8 °C 30 in /  1016.8 hPa SSW 5 mph /  8.0 km/h 16 mph /  25.7 km/h 54 % 0 in /  0.0 mm
14:32 75.6 °F /  24.2 °C 58.3 °F /  14.6 °C 30 in /  1017.2 hPa SW 5 mph /  8.0 km/h 15 mph /  24.1 km/h 55 % 0 in /  0.0 mm
14:37 75.4 °F /  24.1 °C 57.6 °F /  14.2 °C 30 in /  1017.2 hPa West 8 mph /  12.9 km/h 15 mph /  24.1 km/h 54 % 0 in /  0.0 mm
14:42 75.4 °F /  24.1 °C 57.6 °F /  14.2 °C 30 in /  1017.2 hPa SSW 3 mph /  4.8 km/h 15 mph /  24.1 km/h 54 % 0 in /  0.0 mm
14:47 75.6 °F /  24.2 °C 57.7 °F /  14.3 °C 30 in /  1017.2 hPa West 8 mph /  12.9 km/h 15 mph /  24.1 km/h 54 % 0 in /  0.0 mm
14:52 75.4 °F /  24.1 °C 58.1 °F /  14.5 °C 30 in /  1017.2 hPa WNW 8 mph /  12.9 km/h 15 mph /  24.1 km/h 55 % 0 in /  0.0 mm
14:57 75.4 °F /  24.1 °C 57.6 °F /  14.2 °C 30 in /  1017.2 hPa WNW 6 mph /  9.7 km/h 15 mph /  24.1 km/h 54 % 0 in /  0.0 mm
15:02 75.6 °F /  24.2 °C 57.7 °F /  14.3 °C 30 in /  1017.2 hPa SW 8 mph /  12.9 km/h 15 mph /  24.1 km/h 54 % 0 in /  0.0 mm
15:12 75.7 °F /  24.3 °C 57.9 °F /  14.4 °C 30 in /  1017.2 hPa SW 4 mph /  6.4 km/h 13 mph /  20.9 km/h 54 % 0 in /  0.0 mm
15:17 75.9 °F /  24.4 °C 58.6 °F /  14.8 °C 30.1 in /  1017.5 hPa NW 5 mph /  8.0 km/h 13 mph /  20.9 km/h 55 % 0 in /  0.0 mm
15:22 76.5 °F /  24.7 °C 58.6 °F /  14.8 °C 30.1 in /  1017.5 hPa West 6 mph /  9.7 km/h 12 mph /  19.3 km/h 54 % 0 in /  0.0 mm
15:27 76.8 °F /  24.9 °C 57.9 °F /  14.4 °C 30.1 in /  1017.5 hPa SSW 7 mph /  11.3 km/h 11 mph /  17.7 km/h 52 % 0 in /  0.0 mm
15:32 76.6 °F /  24.8 °C 58.3 °F /  14.6 °C 30.1 in /  1017.5 hPa SW 6 mph /  9.7 km/h 12 mph /  19.3 km/h 53 % 0 in /  0.0 mm
15:37 76.5 °F /  24.7 °C 58.1 °F /  14.5 °C 30.1 in /  1017.5 hPa WSW 9 mph /  14.5 km/h 12 mph /  19.3 km/h 53 % 0 in /  0.0 mm
15:42 76.6 °F /  24.8 °C 58.3 °F /  14.6 °C 30 in /  1017.2 hPa SSE 4 mph /  6.4 km/h 12 mph /  19.3 km/h 53 % 0 in /  0.0 mm
15:47 76.5 °F /  24.7 °C 58.1 °F /  14.5 °C 30 in /  1017.2 hPa WSW 8 mph /  12.9 km/h 14 mph /  22.5 km/h 53 % 0 in /  0.0 mm
15:52 76.1 °F /  24.5 °C 58.3 °F /  14.6 °C 30 in /  1017.2 hPa WSW 5 mph /  8.0 km/h 14 mph /  22.5 km/h 54 % 0 in /  0.0 mm
15:57 75.9 °F /  24.4 °C 58.6 °F /  14.8 °C 30 in /  1017.2 hPa WSW 2 mph /  3.2 km/h 14 mph /  22.5 km/h 55 % 0 in /  0.0 mm
16:02 75.9 °F /  24.4 °C 58.1 °F /  14.5 °C 30 in /  1017.2 hPa West 5 mph /  8.0 km/h 14 mph /  22.5 km/h 54 % 0 in /  0.0 mm
16:07 75.7 °F /  24.3 °C 58.5 °F /  14.7 °C 30 in /  1017.2 hPa SW 10 mph /  16.1 km/h 14 mph /  22.5 km/h 55 % 0 in /  0.0 mm
16:17 75.9 °F /  24.4 °C 58.6 °F /  14.8 °C 30 in /  1017.2 hPa WSW 7 mph /  11.3 km/h 13 mph /  20.9 km/h 55 % 0 in /  0.0 mm
16:22 76.5 °F /  24.7 °C 59.2 °F /  15.1 °C 30 in /  1017.2 hPa WSW 3 mph /  4.8 km/h 13 mph /  20.9 km/h 55 % 0 in /  0.0 mm
16:32 75.9 °F /  24.4 °C 59.2 °F /  15.1 °C 30 in /  1017.2 hPa WSW 7 mph /  11.3 km/h 10 mph /  16.1 km/h 56 % 0 in /  0.0 mm
16:37 75.9 °F /  24.4 °C 59.5 °F /  15.3 °C 30 in /  1017.2 hPa West 4 mph /  6.4 km/h 11 mph /  17.7 km/h 57 % 0 in /  0.0 mm
16:42 75.9 °F /  24.4 °C 59.5 °F /  15.3 °C 30 in /  1017.2 hPa West 5 mph /  8.0 km/h 13 mph /  20.9 km/h 57 % 0 in /  0.0 mm
16:47 75.4 °F /  24.1 °C 59.5 °F /  15.3 °C 30.1 in /  1017.5 hPa WNW 3 mph /  4.8 km/h 13 mph /  20.9 km/h 58 % 0 in /  0.0 mm
16:52 75.2 °F /  24.0 °C 59.4 °F /  15.2 °C 30.1 in /  1017.5 hPa WSW 5 mph /  8.0 km/h 13 mph /  20.9 km/h 58 % 0 in /  0.0 mm
16:57 75.4 °F /  24.1 °C 59.5 °F /  15.3 °C 30.1 in /  1017.5 hPa West 5 mph /  8.0 km/h 12 mph /  19.3 km/h 58 % 0 in /  0.0 mm
17:02 75 °F /  23.9 °C 59.2 °F /  15.1 °C 30.1 in /  1017.5 hPa WNW 5 mph /  8.0 km/h 12 mph /  19.3 km/h 58 % 0 in /  0.0 mm
17:07 74.8 °F /  23.8 °C 60.1 °F /  15.6 °C 30.1 in /  1017.5 hPa WSW 6 mph /  9.7 km/h 12 mph /  19.3 km/h 60 % 0 in /  0.0 mm
17:12 74.7 °F /  23.7 °C 59.4 °F /  15.2 °C 30.1 in /  1017.5 hPa SW 6 mph /  9.7 km/h 12 mph /  19.3 km/h 59 % 0 in /  0.0 mm
17:17 74.7 °F /  23.7 °C 59.9 °F /  15.5 °C 30.1 in /  1017.8 hPa West 6 mph /  9.7 km/h 12 mph /  19.3 km/h 60 % 0 in /  0.0 mm
17:22 74.5 °F /  23.6 °C 59.7 °F /  15.4 °C 30.1 in /  1017.8 hPa West 4 mph /  6.4 km/h 9 mph /  14.5 km/h 60 % 0 in /  0.0 mm
17:32 74.1 °F /  23.4 °C 59.7 °F /  15.4 °C 30.1 in /  1017.8 hPa WSW 3 mph /  4.8 km/h 9 mph /  14.5 km/h 61 % 0 in /  0.0 mm
17:37 74.1 °F /  23.4 °C 59.7 °F /  15.4 °C 30.1 in /  1017.8 hPa SSW 4 mph /  6.4 km/h 10 mph /  16.1 km/h 61 % 0 in /  0.0 mm
17:42 73.9 °F /  23.3 °C 60.1 °F /  15.6 °C 30.1 in /  1017.8 hPa West 5 mph /  8.0 km/h 10 mph /  16.1 km/h 62 % 0 in /  0.0 mm
17:47 74.1 °F /  23.4 °C 60.3 °F /  15.7 °C 30.1 in /  1017.8 hPa West 4 mph /  6.4 km/h 10 mph /  16.1 km/h 62 % 0 in /  0.0 mm
17:52 73.9 °F /  23.3 °C 60.1 °F /  15.6 °C 30.1 in /  1017.8 hPa WSW 3 mph /  4.8 km/h 9 mph /  14.5 km/h 62 % 0 in /  0.0 mm
18:02 73.9 °F /  23.3 °C 60.6 °F /  15.9 °C 30.1 in /  1017.8 hPa WSW 4 mph /  6.4 km/h 11 mph /  17.7 km/h 63 % 0 in /  0.0 mm
18:07 74.1 °F /  23.4 °C 60.8 °F /  16.0 °C 30.1 in /  1017.8 hPa West 3 mph /  4.8 km/h 11 mph /  17.7 km/h 63 % 0 in /  0.0 mm
18:12 74.1 °F /  23.4 °C 61.2 °F /  16.2 °C 30.1 in /  1018.2 hPa WNW 6 mph /  9.7 km/h 8 mph /  12.9 km/h 64 % 0 in /  0.0 mm
18:17 74.3 °F /  23.5 °C 61.3 °F /  16.3 °C 30.1 in /  1018.2 hPa West 3 mph /  4.8 km/h 7 mph /  11.3 km/h 64 % 0 in /  0.0 mm
18:22 74.3 °F /  23.5 °C 60.8 °F /  16.0 °C 30.1 in /  1018.2 hPa West 3 mph /  4.8 km/h 7 mph /  11.3 km/h 63 % 0 in /  0.0 mm
18:32 73.9 °F /  23.3 °C 61 °F /  16.1 °C 30.1 in /  1018.2 hPa West 3 mph /  4.8 km/h 9 mph /  14.5 km/h 64 % 0 in /  0.0 mm
18:42 73.9 °F /  23.3 °C 61 °F /  16.1 °C 30.1 in /  1018.2 hPa West 3 mph /  4.8 km/h 9 mph /  14.5 km/h 64 % 0 in /  0.0 mm
18:47 73.8 °F /  23.2 °C 60.8 °F /  16.0 °C 30.1 in /  1018.2 hPa West 4 mph /  6.4 km/h 8 mph /  12.9 km/h 64 % 0 in /  0.0 mm
18:52 73.8 °F /  23.2 °C 61.3 °F /  16.3 °C 30.1 in /  1018.2 hPa West 4 mph /  6.4 km/h 8 mph /  12.9 km/h 65 % 0 in /  0.0 mm
18:57 73.6 °F /  23.1 °C 61.2 °F /  16.2 °C 30.1 in /  1018.5 hPa WNW 5 mph /  8.0 km/h 8 mph /  12.9 km/h 65 % 0 in /  0.0 mm
19:02 73.6 °F /  23.1 °C 61.2 °F /  16.2 °C 30.1 in /  1018.5 hPa West 4 mph /  6.4 km/h 8 mph /  12.9 km/h 65 % 0 in /  0.0 mm
19:07 73.4 °F /  23.0 °C 61.3 °F /  16.3 °C 30.1 in /  1018.2 hPa West 5 mph /  8.0 km/h 7 mph /  11.3 km/h 66 % 0 in /  0.0 mm
19:12 73.4 °F /  23.0 °C 61.3 °F /  16.3 °C 30.1 in /  1018.5 hPa WSW 4 mph /  6.4 km/h 7 mph /  11.3 km/h 66 % 0 in /  0.0 mm
19:17 73.6 °F /  23.1 °C 61.5 °F /  16.4 °C 30.1 in /  1018.5 hPa WNW 5 mph /  8.0 km/h 7 mph /  11.3 km/h 66 % 0 in /  0.0 mm
19:22 73.8 °F /  23.2 °C 61.3 °F /  16.3 °C 30.1 in /  1018.5 hPa WNW 3 mph /  4.8 km/h 7 mph /  11.3 km/h 65 % 0 in /  0.0 mm
19:27 73.6 °F /  23.1 °C 61.2 °F /  16.2 °C 30.1 in /  1018.5 hPa WSW 4 mph /  6.4 km/h 8 mph /  12.9 km/h 65 % 0 in /  0.0 mm
19:32 73.2 °F /  22.9 °C 61.2 °F /  16.2 °C 30.1 in /  1018.5 hPa WNW 3 mph /  4.8 km/h 8 mph /  12.9 km/h 66 % 0 in /  0.0 mm
19:37 73 °F /  22.8 °C 61 °F /  16.1 °C 30.1 in /  1018.5 hPa West 6 mph /  9.7 km/h 7 mph /  11.3 km/h 66 % 0 in /  0.0 mm
19:42 72.7 °F /  22.6 °C 61.2 °F /  16.2 °C 30.1 in /  1018.8 hPa West 5 mph /  8.0 km/h 10 mph /  16.1 km/h 67 % 0 in /  0.0 mm
19:47 72.5 °F /  22.5 °C 61 °F /  16.1 °C 30.1 in /  1018.8 hPa WSW 6 mph /  9.7 km/h 10 mph /  16.1 km/h 67 % 0 in /  0.0 mm
19:52 72.3 °F /  22.4 °C 61.2 °F /  16.2 °C 30.1 in /  1018.8 hPa WSW 4 mph /  6.4 km/h 10 mph /  16.1 km/h 68 % 0 in /  0.0 mm
19:57 72.1 °F /  22.3 °C 61 °F /  16.1 °C 30.1 in /  1018.8 hPa WSW 2 mph /  3.2 km/h 9 mph /  14.5 km/h 68 % 0 in /  0.0 mm
20:02 72.3 °F /  22.4 °C 61.2 °F /  16.2 °C 30.1 in /  1018.8 hPa WNW 3 mph /  4.8 km/h 7 mph /  11.3 km/h 68 % 0 in /  0.0 mm
20:07 72 °F /  22.2 °C 60.8 °F /  16.0 °C 30.1 in /  1018.8 hPa WNW 5 mph /  8.0 km/h 8 mph /  12.9 km/h 68 % 0 in /  0.0 mm
20:12 71.8 °F /  22.1 °C 61 °F /  16.1 °C 30.1 in /  1018.8 hPa WNW 3 mph /  4.8 km/h 8 mph /  12.9 km/h 69 % 0 in /  0.0 mm
20:17 71.4 °F /  21.9 °C 61.2 °F /  16.2 °C 30.1 in /  1018.8 hPa WNW 3 mph /  4.8 km/h 8 mph /  12.9 km/h 70 % 0 in /  0.0 mm
20:22 71.2 °F /  21.8 °C 61 °F /  16.1 °C 30.1 in /  1019.2 hPa West 1 mph /  1.6 km/h 7 mph /  11.3 km/h 70 % 0 in /  0.0 mm
20:27 71.1 °F /  21.7 °C 60.8 °F /  16.0 °C 30.1 in /  1019.2 hPa West 2 mph /  3.2 km/h 6 mph /  9.7 km/h 70 % 0 in /  0.0 mm
20:32 70.9 °F /  21.6 °C 60.6 °F /  15.9 °C 30.1 in /  1019.2 hPa West 1 mph /  1.6 km/h 6 mph /  9.7 km/h 70 % 0 in /  0.0 mm
20:37 70.5 °F /  21.4 °C 60.6 °F /  15.9 °C 30.1 in /  1019.2 hPa West 1 mph /  1.6 km/h 4 mph /  6.4 km/h 71 % 0 in /  0.0 mm
20:42 70.3 °F /  21.3 °C 60.4 °F /  15.8 °C 30.1 in /  1019.2 hPa West 2 mph /  3.2 km/h 4 mph /  6.4 km/h 71 % 0 in /  0.0 mm
20:47 70.2 °F /  21.2 °C 60.3 °F /  15.7 °C 30.1 in /  1019.5 hPa WSW 3 mph /  4.8 km/h 4 mph /  6.4 km/h 71 % 0 in /  0.0 mm
20:52 70 °F /  21.1 °C 60.6 °F /  15.9 °C 30.1 in /  1019.5 hPa WNW 2 mph /  3.2 km/h 4 mph /  6.4 km/h 72 % 0 in /  0.0 mm
20:57 69.6 °F /  20.9 °C 60.3 °F /  15.7 °C 30.1 in /  1019.5 hPa West 1 mph /  1.6 km/h 4 mph /  6.4 km/h 72 % 0 in /  0.0 mm
21:02 69.4 °F /  20.8 °C 60.1 °F /  15.6 °C 30.1 in /  1019.5 hPa Calm   4 mph /  6.4 km/h 72 % 0 in /  0.0 mm
21:07 69.3 °F /  20.7 °C 60.3 °F /  15.7 °C 30.1 in /  1019.5 hPa Calm   3 mph /  4.8 km/h 73 % 0 in /  0.0 mm
21:12 69.1 °F /  20.6 °C 60.1 °F /  15.6 °C 30.1 in /  1019.9 hPa West 1 mph /  1.6 km/h 3 mph /  4.8 km/h 73 % 0 in /  0.0 mm
21:17 68.7 °F /  20.4 °C 59.7 °F /  15.4 °C 30.1 in /  1019.9 hPa Calm   2 mph /  3.2 km/h 73 % 0 in /  0.0 mm
21:22 68.4 °F /  20.2 °C 59.7 °F /  15.4 °C 30.1 in /  1019.9 hPa Calm   2 mph /  3.2 km/h 74 % 0 in /  0.0 mm
21:32 68.4 °F /  20.2 °C 60.1 °F /  15.6 °C 30.1 in /  1019.9 hPa Calm   2 mph /  3.2 km/h 75 % 0 in /  0.0 mm
21:37 68.2 °F /  20.1 °C 59.9 °F /  15.5 °C 30.1 in /  1019.9 hPa WSW 1 mph /  1.6 km/h 2 mph /  3.2 km/h 75 % 0 in /  0.0 mm
21:42 67.8 °F /  19.9 °C 59.5 °F /  15.3 °C 30.1 in /  1019.9 hPa Calm   2 mph /  3.2 km/h 75 % 0 in /  0.0 mm
21:47 67.6 °F /  19.8 °C 59.7 °F /  15.4 °C 30.1 in /  1019.9 hPa Calm   2 mph /  3.2 km/h 76 % 0 in /  0.0 mm
21:52 67.3 °F /  19.6 °C 59.9 °F /  15.5 °C 30.1 in /  1019.9 hPa Calm   2 mph /  3.2 km/h 77 % 0 in /  0.0 mm
21:57 66.7 °F /  19.3 °C 59.4 °F /  15.2 °C 30.1 in /  1019.9 hPa Calm   2 mph /  3.2 km/h 77 % 0 in /  0.0 mm
22:02 66.4 °F /  19.1 °C 59.4 °F /  15.2 °C 30.1 in /  1019.9 hPa Calm   2 mph /  3.2 km/h 78 % 0 in /  0.0 mm
22:12 66 °F /  18.9 °C 59.4 °F /  15.2 °C 30.1 in /  1019.9 hPa Calm   1 mph /  1.6 km/h 79 % 0 in /  0.0 mm
22:17 65.8 °F /  18.8 °C 59.5 °F /  15.3 °C 30.1 in /  1019.9 hPa Calm   1 mph /  1.6 km/h 80 % 0 in /  0.0 mm
22:22 65.8 °F /  18.8 °C 59.5 °F /  15.3 °C 30.1 in /  1020.2 hPa Calm   1 mph /  1.6 km/h 80 % 0 in /  0.0 mm
22:27 65.5 °F /  18.6 °C 59.2 °F /  15.1 °C 30.1 in /  1020.2 hPa Calm   1 mph /  1.6 km/h 80 % 0 in /  0.0 mm
22:32 64.9 °F /  18.3 °C 59 °F /  15.0 °C 30.1 in /  1020.2 hPa ENE 1 mph /  1.6 km/h 1 mph /  1.6 km/h 81 % 0 in /  0.0 mm
22:37 65.1 °F /  18.4 °C 59.2 °F /  15.1 °C 30.1 in /  1020.2 hPa Calm   2 mph /  3.2 km/h 81 % 0 in /  0.0 mm
22:42 65.1 °F /  18.4 °C 59.2 °F /  15.1 °C 30.1 in /  1020.5 hPa Calm   2 mph /  3.2 km/h 81 % 0 in /  0.0 mm
22:47 65.1 °F /  18.4 °C 59.2 °F /  15.1 °C 30.1 in /  1020.2 hPa Calm   2 mph /  3.2 km/h 81 % 0 in /  0.0 mm
22:52 65.1 °F /  18.4 °C 59.2 °F /  15.1 °C 30.1 in /  1020.2 hPa Calm   1 mph /  1.6 km/h 81 % 0 in /  0.0 mm
22:57 65.1 °F /  18.4 °C 59.2 °F /  15.1 °C 30.1 in /  1020.2 hPa Calm     81 % 0 in /  0.0 mm
23:02 64.9 °F /  18.3 °C 59 °F /  15.0 °C 30.1 in /  1020.2 hPa Calm     81 % 0 in /  0.0 mm
23:07 64.8 °F /  18.2 °C 58.8 °F /  14.9 °C 30.1 in /  1020.5 hPa Calm     81 % 0 in /  0.0 mm
23:12 64.8 °F /  18.2 °C 58.8 °F /  14.9 °C 30.1 in /  1020.5 hPa Calm     81 % 0 in /  0.0 mm
23:17 64.8 °F /  18.2 °C 59.2 °F /  15.1 °C 30.1 in /  1020.5 hPa Calm     82 % 0 in /  0.0 mm
23:22 64.6 °F /  18.1 °C 59 °F /  15.0 °C 30.1 in /  1020.5 hPa Calm     82 % 0 in /  0.0 mm
23:27 64.6 °F /  18.1 °C 59 °F /  15.0 °C 30.1 in /  1020.5 hPa Calm     82 % 0 in /  0.0 mm
23:32 64.8 °F /  18.2 °C 59.5 °F /  15.3 °C 30.1 in /  1020.5 hPa Calm     83 % 0 in /  0.0 mm
23:37 64.8 °F /  18.2 °C 59.5 °F /  15.3 °C 30.1 in /  1020.5 hPa Calm     83 % 0 in /  0.0 mm
23:42 64.8 °F /  18.2 °C 59.2 °F /  15.1 °C 30.1 in /  1020.2 hPa Calm     82 % 0 in /  0.0 mm
23:47 64.8 °F /  18.2 °C 59.5 °F /  15.3 °C 30.1 in /  1020.5 hPa Calm     83 % 0 in /  0.0 mm
23:52 64.8 °F /  18.2 °C 59.5 °F /  15.3 °C 30.1 in /  1020.5 hPa Calm     83 % 0 in /  0.0 mm
23:57 64.8 °F /  18.2 °C 59.5 °F /  15.3 °C 30.1 in /  1020.2 hPa Calm     83 % 0 in /  0.0 mm
Meteo18
Compliments of Weather Underground - 4 mb

Script developed by  Jim McMurry - jmcmurry@mwt.net Adapted for the template by  Wim van der Kuil - Leuven-Template.eu

You find our weather info also at:

European Weather Network

Weather Underground

Equipment we use:

Weather-station
Davis Vue

Weather-program
Meteohub

Weather-server
Raspberry PI 2 B+

Provider
1 and 1

Davis Vue

Meteohub

Raspberry PI 2 B+

1 and 1